createdAt,value
2022-09-09T00:02:03.582Z,5.20
2022-09-09T00:04:34.875Z,6.18
2022-09-09T00:07:07.050Z,5.90
2022-09-09T00:09:46.731Z,5.32
2022-09-09T00:12:18.635Z,5.05
2022-09-09T00:14:53.206Z,4.82
2022-09-09T00:17:40.699Z,6.05
2022-09-09T00:20:16.639Z,6.53
2022-09-09T00:22:53.320Z,6.63
2022-09-09T00:25:29.085Z,4.85
2022-09-09T00:27:58.158Z,5.38
2022-09-09T00:30:28.178Z,5.82
2022-09-09T00:33:00.185Z,7.03
2022-09-09T00:35:33.607Z,5.53
2022-09-09T00:38:10.765Z,5.70
2022-09-09T00:40:47.628Z,5.50
2022-09-09T00:43:32.128Z,6.18
2022-09-09T00:46:27.842Z,6.50
2022-09-09T00:49:04.595Z,6.03
2022-09-09T00:51:48.606Z,5.68
2022-09-09T00:54:29.034Z,5.60
2022-09-09T00:57:08.736Z,6.20
2022-09-09T00:59:48.860Z,6.07
2022-09-09T01:02:27.985Z,6.40
2022-09-09T01:04:56.704Z,5.72
2022-09-09T01:07:25.996Z,6.00
2022-09-09T01:09:58.499Z,5.40
2022-09-09T01:12:30.489Z,6.80
2022-09-09T01:15:10.661Z,6.43
2022-09-09T01:17:51.131Z,5.28
2022-09-09T01:20:25.215Z,6.10
2022-09-09T01:23:10.011Z,5.97
2022-09-09T01:26:34.465Z,6.88
2022-09-09T01:29:02.826Z,5.95
2022-09-09T01:31:34.339Z,6.35
2022-09-09T01:34:02.211Z,7.25
2022-09-09T01:36:38.063Z,7.82
2022-09-09T01:39:06.232Z,6.60
2022-09-09T01:41:35.811Z,5.95
2022-09-09T01:44:05.081Z,6.07
2022-09-09T01:46:33.588Z,6.43
2022-09-09T01:49:04.146Z,6.55
2022-09-09T01:51:32.876Z,7.07
2022-09-09T01:54:00.805Z,5.85
2022-09-09T01:56:42.168Z,5.68
2022-09-09T01:59:26.612Z,6.10
2022-09-09T02:02:06.667Z,6.97
2022-09-09T02:04:40.325Z,6.03
2022-09-09T02:07:16.435Z,6.78
2022-09-09T02:09:48.112Z,5.85
2022-09-09T02:12:22.499Z,6.60
2022-09-09T02:14:57.338Z,8.93
2022-09-09T02:17:29.456Z,6.05
2022-09-09T02:20:04.250Z,6.50
2022-09-09T02:22:36.260Z,7.03
2022-09-09T02:25:06.442Z,6.15
2022-09-09T02:27:36.706Z,5.90
2022-09-09T02:30:06.433Z,5.75
2022-09-09T02:32:37.689Z,6.13
2022-09-09T02:35:10.363Z,7.22
2022-09-09T02:37:40.740Z,6.55
2022-09-09T02:40:11.469Z,6.07
2022-09-09T02:42:42.974Z,8.45
2022-09-09T02:45:12.848Z,6.30
2022-09-09T02:47:48.257Z,7.07
2022-09-09T02:50:21.846Z,6.47
2022-09-09T02:53:02.115Z,7.05
2022-09-09T02:55:40.999Z,6.47
2022-09-09T02:58:13.172Z,6.75
2022-09-09T03:00:43.136Z,7.03
2022-09-09T03:03:11.654Z,8.80
2022-09-09T03:05:39.899Z,8.05
2022-09-09T03:08:07.955Z,8.50
2022-09-09T03:10:36.235Z,7.25
2022-09-09T03:13:05.347Z,7.35
2022-09-09T03:15:35.504Z,6.93
2022-09-09T03:18:04.076Z,7.75
2022-09-09T03:20:32.795Z,6.53
2022-09-09T03:23:02.068Z,7.60
2022-09-09T03:25:30.312Z,6.93
2022-09-09T03:27:58.788Z,6.50
2022-09-09T03:30:28.272Z,6.45
2022-09-09T03:32:57.734Z,6.90
2022-09-09T03:35:26.216Z,6.95
2022-09-09T03:37:54.121Z,7.22
2022-09-09T03:40:21.991Z,7.38
2022-09-09T03:42:50.207Z,6.70
2022-09-09T03:45:18.581Z,6.78
2022-09-09T03:47:47.115Z,6.72
2022-09-09T03:50:16.463Z,6.68
2022-09-09T03:52:44.900Z,7.22
2022-09-09T03:55:12.812Z,7.10
2022-09-09T03:57:40.696Z,9.18
2022-09-09T04:00:10.660Z,7.43
2022-09-09T04:02:38.610Z,6.70
2022-09-09T04:05:07.970Z,8.25
2022-09-09T04:07:37.287Z,6.78
2022-09-09T04:10:05.688Z,7.30
2022-09-09T04:12:33.564Z,7.57
2022-09-09T04:15:04.115Z,6.63
2022-09-09T04:17:32.058Z,6.50
2022-09-09T04:19:59.959Z,7.05
2022-09-09T04:22:27.874Z,7.55
2022-09-09T04:24:57.188Z,6.75
2022-09-09T04:27:25.170Z,7.13
2022-09-09T04:29:53.055Z,7.30
2022-09-09T04:32:20.972Z,8.73
2022-09-09T04:34:49.201Z,6.45
2022-09-09T04:37:17.806Z,6.90
2022-09-09T04:39:46.247Z,7.05
2022-09-09T04:42:19.781Z,6.45
2022-09-09T04:44:47.952Z,6.50
2022-09-09T04:47:15.911Z,6.40
2022-09-09T04:49:43.820Z,7.35
2022-09-09T04:52:11.774Z,7.10
2022-09-09T04:54:39.973Z,6.70
2022-09-09T04:57:08.019Z,8.75
2022-09-09T04:59:37.286Z,7.32
2022-09-09T05:02:05.411Z,7.45
2022-09-09T05:04:34.131Z,8.57
2022-09-09T05:07:02.015Z,8.55
2022-09-09T05:09:30.137Z,7.43
2022-09-09T05:11:58.386Z,7.05
2022-09-09T05:14:26.413Z,7.60
2022-09-09T05:16:56.947Z,6.85
2022-09-09T05:19:25.071Z,7.65
2022-09-09T05:21:53.066Z,8.32
2022-09-09T05:24:24.117Z,8.73
2022-09-09T05:26:53.655Z,6.85
2022-09-09T05:29:21.721Z,7.72
2022-09-09T05:31:49.839Z,7.18
2022-09-09T05:34:19.224Z,7.15
2022-09-09T05:36:47.901Z,6.70
2022-09-09T05:39:15.769Z,6.40
2022-09-09T05:41:43.797Z,6.45
2022-09-09T05:44:11.676Z,9.38
2022-09-09T05:46:39.739Z,7.00
2022-09-09T05:49:09.307Z,7.90
2022-09-09T05:51:38.690Z,8.13
2022-09-09T05:54:06.751Z,8.07
2022-09-09T05:56:34.685Z,6.20
2022-09-09T05:59:03.115Z,8.98
2022-09-09T06:01:33.812Z,6.88
2022-09-09T06:04:01.867Z,6.82
2022-09-09T06:06:37.540Z,6.20
2022-09-09T06:09:10.783Z,6.45
2022-09-09T06:11:40.621Z,8.35
2022-09-09T06:14:09.429Z,6.43
2022-09-09T06:16:38.772Z,7.57
2022-09-09T06:19:07.535Z,6.35
2022-09-09T06:21:38.039Z,6.10
2022-09-09T06:24:08.631Z,6.32
2022-09-09T06:26:38.268Z,6.32
2022-09-09T06:29:06.919Z,5.40
2022-09-09T06:31:37.887Z,5.60
2022-09-09T06:34:08.389Z,5.60
2022-09-09T06:36:39.274Z,5.55
2022-09-09T06:39:13.773Z,5.78
2022-09-09T06:41:43.635Z,5.22
2022-09-09T06:44:12.904Z,5.85
2022-09-09T06:46:41.387Z,5.55
2022-09-09T06:49:10.707Z,5.30
2022-09-09T06:51:44.089Z,4.88
2022-09-09T06:54:14.482Z,4.45
2022-09-09T06:56:44.381Z,4.50
2022-09-09T06:59:13.431Z,4.28
2022-09-09T07:01:42.989Z,4.72
2022-09-09T07:04:12.176Z,4.38
2022-09-09T07:06:44.169Z,5.45
2022-09-09T07:09:15.524Z,4.80
2022-09-09T07:11:45.237Z,4.72
2022-09-09T07:14:14.974Z,4.40
2022-09-09T07:16:44.071Z,3.67
2022-09-09T07:19:12.620Z,4.18
2022-09-09T07:21:41.985Z,3.83
2022-09-09T07:24:11.628Z,3.83
2022-09-09T07:26:41.939Z,3.95
2022-09-09T07:29:10.453Z,3.67
2022-09-09T07:31:40.856Z,3.75
2022-09-09T07:34:09.315Z,3.53
2022-09-09T07:36:40.179Z,3.70
2022-09-09T07:39:10.087Z,3.53
2022-09-09T07:41:41.477Z,4.25
2022-09-09T07:44:14.721Z,4.28
2022-09-09T07:46:43.510Z,3.63
2022-09-09T07:49:11.861Z,5.72
2022-09-09T07:51:41.711Z,4.97
2022-09-09T07:54:12.137Z,3.67
2022-09-09T07:56:42.390Z,3.47
2022-09-09T07:59:11.726Z,3.03
2022-09-09T08:01:41.608Z,4.53
2022-09-09T08:04:11.257Z,3.67
2022-09-09T08:06:41.693Z,3.35
2022-09-09T08:09:11.093Z,3.55
2022-09-09T08:11:42.019Z,3.03
2022-09-09T08:14:11.964Z,6.00
2022-09-09T08:16:42.243Z,3.20
2022-09-09T08:19:10.942Z,4.25
2022-09-09T08:21:43.259Z,3.33
2022-09-09T08:24:13.387Z,3.40
2022-09-09T08:26:44.495Z,3.60
2022-09-09T08:29:14.234Z,3.20
2022-09-09T08:31:44.616Z,3.30
2022-09-09T08:34:13.526Z,3.47
2022-09-09T08:36:44.590Z,3.50
2022-09-09T08:39:14.174Z,3.10
2022-09-09T08:42:13.438Z,3.00
2022-09-09T08:45:23.236Z,3.15
2022-09-09T08:48:05.587Z,4.15
2022-09-09T08:50:39.468Z,5.35
2022-09-09T08:53:14.069Z,3.17
2022-09-09T08:55:46.937Z,3.13
2022-09-09T08:58:18.514Z,2.97
2022-09-09T09:01:02.272Z,3.88
2022-09-09T09:03:42.618Z,3.45
2022-09-09T09:06:28.080Z,4.18
2022-09-09T09:09:03.281Z,3.72
2022-09-09T09:11:38.308Z,4.45
2022-09-09T09:14:13.987Z,3.17
2022-09-09T09:16:53.071Z,3.67
2022-09-09T09:19:23.835Z,4.20
2022-09-09T09:21:57.092Z,3.40
2022-09-09T09:24:33.588Z,4.10
2022-09-09T09:27:09.763Z,4.03
2022-09-09T09:30:10.497Z,4.60
2022-09-09T09:32:35.122Z,3.40
2022-09-09T09:35:09.064Z,3.42
2022-09-09T09:37:37.476Z,2.90
2022-09-09T09:40:12.299Z,3.10
2022-09-09T09:42:49.362Z,3.25
2022-09-09T09:45:29.381Z,3.40
2022-09-09T09:48:07.205Z,3.22
2022-09-09T09:50:36.526Z,3.10
2022-09-09T09:53:06.944Z,3.25
2022-09-09T09:55:38.012Z,4.15
2022-09-09T09:58:08.154Z,3.65
2022-09-09T10:00:50.828Z,3.15
2022-09-09T10:03:28.389Z,4.00
2022-09-09T10:05:57.251Z,3.97
2022-09-09T10:08:26.368Z,4.93
2022-09-09T10:11:19.310Z,3.03
2022-09-09T10:13:56.652Z,3.83
2022-09-09T10:16:37.882Z,3.65
2022-09-09T10:19:09.309Z,3.80
2022-09-09T10:22:00.652Z,4.65
2022-09-09T10:24:53.714Z,3.40
2022-09-09T10:27:31.582Z,4.38
2022-09-09T10:30:10.050Z,3.20
2022-09-09T10:32:52.244Z,3.50
2022-09-09T10:35:34.623Z,3.80
2022-09-09T10:38:20.227Z,3.45
2022-09-09T10:41:09.908Z,3.85
2022-09-09T10:44:01.736Z,4.03
2022-09-09T10:46:43.036Z,4.28
2022-09-09T10:49:25.492Z,3.92
2022-09-09T10:52:03.937Z,3.85
2022-09-09T10:54:47.997Z,3.88
2022-09-09T10:57:24.297Z,4.70
2022-09-09T11:00:07.841Z,3.28
2022-09-09T11:02:36.745Z,4.05
2022-09-09T11:05:11.805Z,4.25
2022-09-09T11:07:45.069Z,4.05
2022-09-09T11:10:25.115Z,4.03
2022-09-09T11:12:59.071Z,6.72
2022-09-09T11:15:35.796Z,4.05
2022-09-09T11:18:07.143Z,4.15
2022-09-09T11:20:36.712Z,4.82
2022-09-09T11:23:07.643Z,4.32
2022-09-09T11:25:41.359Z,6.25
2022-09-09T11:28:34.942Z,3.65
2022-09-09T11:31:19.424Z,4.45
2022-09-09T11:34:28.280Z,5.93
2022-09-09T11:37:18.297Z,5.00
2022-09-09T11:40:18.441Z,4.65
2022-09-09T11:42:50.290Z,5.10
2022-09-09T11:45:30.693Z,5.25
2022-09-09T11:48:00.251Z,5.15
2022-09-09T11:50:34.040Z,5.57
2022-09-09T11:53:23.816Z,3.55
2022-09-09T11:56:11.075Z,3.88
2022-09-09T11:58:55.662Z,4.57
2022-09-09T12:01:45.676Z,4.65
2022-09-09T12:04:37.833Z,5.40
2022-09-09T12:07:25.587Z,5.00
2022-09-09T12:10:00.407Z,3.83
2022-09-09T12:12:31.594Z,6.35
2022-09-09T12:15:18.427Z,4.82
2022-09-09T12:17:48.166Z,5.38
2022-09-09T12:20:18.622Z,4.03
2022-09-09T12:23:00.506Z,3.97
2022-09-09T12:25:38.763Z,4.53
2022-09-09T12:28:13.159Z,4.10
2022-09-09T12:30:55.943Z,4.30
2022-09-09T12:33:24.604Z,3.88
2022-09-09T12:35:57.686Z,4.60
2022-09-09T12:38:32.409Z,4.28
2022-09-09T12:41:01.815Z,3.42
2022-09-09T12:43:31.079Z,6.88
2022-09-09T12:46:02.292Z,3.47
2022-09-09T12:48:37.737Z,3.85
2022-09-09T12:51:09.785Z,4.88
2022-09-09T12:53:39.837Z,4.50
2022-09-09T12:56:20.252Z,4.60
2022-09-09T12:58:52.387Z,5.20
2022-09-09T13:01:24.344Z,4.30
2022-09-09T13:03:53.613Z,4.40
2022-09-09T13:06:28.862Z,4.35
2022-09-09T13:08:59.584Z,5.55
2022-09-09T13:11:33.072Z,4.55
2022-09-09T13:14:01.823Z,4.07
2022-09-09T13:16:33.412Z,4.00
2022-09-09T13:19:12.072Z,5.93
2022-09-09T13:21:43.466Z,4.82
2022-09-09T13:24:30.232Z,4.93
2022-09-09T13:27:02.916Z,4.28
2022-09-09T13:29:31.903Z,4.18
2022-09-09T13:32:09.392Z,4.20
2022-09-09T13:34:38.251Z,5.40
2022-09-09T13:37:08.224Z,4.68
2022-09-09T13:39:37.943Z,5.90
2022-09-09T13:42:08.220Z,6.28
2022-09-09T13:44:39.954Z,4.15
2022-09-09T13:47:20.031Z,4.25
2022-09-09T13:49:48.849Z,2.90
2022-09-09T13:52:19.052Z,3.90
2022-09-09T13:54:51.052Z,3.47
2022-09-09T13:57:21.819Z,5.15
2022-09-09T14:00:06.255Z,5.43
2022-09-09T14:02:34.839Z,3.95
2022-09-09T14:05:02.945Z,4.50
2022-09-09T14:07:30.955Z,4.45
2022-09-09T14:10:01.187Z,3.97
2022-09-09T14:12:30.874Z,3.45
2022-09-09T14:15:00.347Z,4.18
2022-09-09T14:17:32.648Z,4.60
2022-09-09T14:20:01.188Z,4.03
2022-09-09T14:22:29.533Z,4.10
2022-09-09T14:24:58.611Z,4.00
2022-09-09T14:27:27.942Z,4.43
2022-09-09T14:29:57.363Z,4.10
2022-09-09T14:32:25.298Z,4.18
2022-09-09T14:34:54.098Z,4.70
2022-09-09T14:37:22.236Z,3.53
2022-09-09T14:39:51.535Z,3.55
2022-09-09T14:42:19.707Z,4.10
2022-09-09T14:44:48.824Z,3.58
2022-09-09T14:47:18.744Z,3.33
2022-09-09T14:49:47.289Z,4.03
2022-09-09T14:52:15.371Z,4.63
2022-09-09T14:54:43.248Z,5.40
2022-09-09T14:57:11.201Z,3.67
2022-09-09T14:59:39.175Z,4.53
2022-09-09T15:02:07.610Z,6.07
2022-09-09T15:04:37.003Z,3.75
2022-09-09T15:07:04.960Z,5.90
2022-09-09T15:09:32.952Z,4.20
2022-09-09T15:12:01.804Z,5.10
2022-09-09T15:14:29.700Z,4.75
2022-09-09T15:16:57.600Z,3.70
2022-09-09T15:19:25.623Z,7.07
2022-09-09T15:21:55.412Z,5.38
2022-09-09T15:24:23.483Z,3.83
2022-09-09T15:26:51.590Z,3.70
2022-09-09T15:29:19.945Z,4.53
2022-09-09T15:31:48.633Z,4.38
2022-09-09T15:34:17.033Z,3.83
2022-09-09T15:36:47.224Z,3.65
2022-09-09T15:39:18.443Z,3.75
2022-09-09T15:41:47.827Z,4.60
2022-09-09T15:44:16.755Z,5.10
2022-09-09T15:46:46.138Z,3.70
2022-09-09T15:49:15.307Z,4.82
2022-09-09T15:51:45.141Z,4.20
2022-09-09T15:54:14.695Z,3.80
2022-09-09T15:56:44.462Z,5.53
2022-09-09T15:59:12.577Z,3.97
2022-09-09T16:01:41.849Z,4.85
2022-09-09T16:04:10.634Z,4.10
2022-09-09T16:06:40.073Z,4.53
2022-09-09T16:09:11.184Z,5.80
2022-09-09T16:11:40.368Z,4.57
2022-09-09T16:14:09.989Z,4.80
2022-09-09T16:16:38.021Z,5.00
2022-09-09T16:19:08.049Z,5.25
2022-09-09T16:21:40.660Z,4.32
2022-09-09T16:24:10.291Z,5.82
2022-09-09T16:26:40.378Z,5.65
2022-09-09T16:29:10.959Z,4.85
2022-09-09T16:31:40.499Z,5.97
2022-09-09T16:34:08.563Z,4.38
2022-09-09T16:36:40.046Z,4.72
2022-09-09T16:39:10.886Z,5.47
2022-09-09T16:41:40.171Z,6.15
2022-09-09T16:44:12.418Z,5.63
2022-09-09T16:46:42.721Z,7.40
2022-09-09T16:49:12.190Z,5.28
2022-09-09T16:51:42.527Z,6.10
2022-09-09T16:54:12.200Z,6.03
2022-09-09T16:56:43.458Z,5.20
2022-09-09T16:59:15.377Z,5.25
2022-09-09T17:01:44.986Z,5.40
2022-09-09T17:04:14.744Z,5.72
2022-09-09T17:06:42.858Z,5.63
2022-09-09T17:09:14.030Z,4.35
2022-09-09T17:11:42.559Z,5.65
2022-09-09T17:14:15.304Z,6.53
2022-09-09T17:16:44.210Z,6.18
2022-09-09T17:19:12.800Z,7.82
2022-09-09T17:21:59.946Z,5.47
2022-09-09T17:24:30.124Z,7.20
2022-09-09T17:26:58.904Z,6.45
2022-09-09T17:29:28.275Z,6.15
2022-09-09T17:31:57.518Z,5.13
2022-09-09T17:34:26.401Z,6.55
2022-09-09T17:36:54.372Z,7.93
2022-09-09T17:39:22.911Z,7.53
2022-09-09T17:41:50.870Z,5.30
2022-09-09T17:44:29.497Z,5.18
2022-09-09T17:46:59.212Z,7.70
2022-09-09T17:49:27.751Z,5.40
2022-09-09T17:51:57.208Z,5.68
2022-09-09T17:54:25.284Z,7.82
2022-09-09T17:56:54.359Z,8.23
2022-09-09T17:59:22.325Z,6.18
2022-09-09T18:01:51.354Z,6.45
2022-09-09T18:04:21.198Z,6.03
2022-09-09T18:06:51.952Z,5.05
2022-09-09T18:09:23.253Z,6.15
2022-09-09T18:11:55.405Z,5.28
2022-09-09T18:14:25.553Z,5.80
2022-09-09T18:16:54.189Z,7.57
2022-09-09T18:19:25.577Z,4.40
2022-09-09T18:21:57.445Z,6.68
2022-09-09T18:24:28.355Z,5.28
2022-09-09T18:26:56.324Z,7.78
2022-09-09T18:29:26.350Z,5.72
2022-09-09T18:31:55.603Z,4.93
2022-09-09T18:34:28.676Z,6.05
2022-09-09T18:36:57.340Z,4.88
2022-09-09T18:39:28.191Z,5.22
2022-09-09T18:41:59.531Z,5.25
2022-09-09T18:44:30.391Z,8.10
2022-09-09T18:46:58.615Z,4.57
2022-09-09T18:49:31.032Z,4.05
2022-09-09T18:51:59.278Z,5.13
2022-09-09T18:54:30.405Z,3.85
2022-09-09T18:57:00.997Z,4.35
2022-09-09T18:59:29.346Z,4.18
2022-09-09T19:01:57.473Z,5.75
2022-09-09T19:04:27.563Z,4.65
2022-09-09T19:06:58.248Z,4.57
2022-09-09T19:09:28.575Z,4.40
2022-09-09T19:11:59.856Z,4.25
2022-09-09T19:14:31.700Z,6.20
2022-09-09T19:17:00.672Z,4.50
2022-09-09T19:19:32.068Z,5.00
2022-09-09T19:22:00.761Z,5.95
2022-09-09T19:24:30.776Z,3.75
2022-09-09T19:27:02.752Z,5.30
2022-09-09T19:29:33.092Z,4.63
2022-09-09T19:32:49.217Z,4.28
2022-09-09T19:34:52.564Z,5.22
2022-09-09T19:37:21.034Z,4.30
2022-09-09T19:39:49.819Z,5.80
2022-09-09T19:42:20.226Z,6.13
2022-09-09T19:44:49.208Z,4.13
2022-09-09T19:47:18.525Z,5.75
2022-09-09T19:49:47.790Z,4.72
2022-09-09T19:52:17.796Z,3.92
2022-09-09T19:54:46.813Z,4.05
2022-09-09T19:57:16.284Z,3.83
2022-09-09T19:59:44.426Z,3.80
2022-09-09T20:02:15.829Z,6.38
2022-09-09T20:04:45.828Z,4.97
2022-09-09T20:07:15.939Z,4.10
2022-09-09T20:09:45.704Z,5.15
2022-09-09T20:12:13.767Z,3.92
2022-09-09T20:14:41.866Z,4.07
2022-09-09T20:17:10.354Z,4.57
2022-09-09T20:19:40.074Z,6.70
2022-09-09T20:22:08.226Z,4.65
2022-09-09T20:24:38.256Z,6.38
2022-09-09T20:27:09.529Z,5.28
2022-09-09T20:29:38.265Z,5.70
2022-09-09T20:32:07.070Z,8.48
2022-09-09T20:34:35.185Z,5.18
2022-09-09T20:37:03.363Z,4.32
2022-09-09T20:39:31.472Z,3.60
2022-09-09T20:41:59.429Z,4.43
2022-09-09T20:44:29.693Z,4.45
2022-09-09T20:47:02.868Z,4.22
2022-09-09T20:49:31.055Z,5.10
2022-09-09T20:51:59.020Z,4.07
2022-09-09T20:54:30.331Z,4.00
2022-09-09T20:57:00.603Z,4.40
2022-09-09T20:59:31.956Z,4.90
2022-09-09T21:02:01.592Z,4.63
2022-09-09T21:04:30.663Z,5.35
2022-09-09T21:06:58.618Z,4.95
2022-09-09T21:09:26.587Z,4.20
2022-09-09T21:11:54.792Z,4.50
2022-09-09T21:14:22.978Z,5.57
2022-09-09T21:16:52.508Z,4.20
2022-09-09T21:19:20.409Z,5.80
2022-09-09T21:21:48.898Z,9.48
2022-09-09T21:24:17.271Z,7.45
2022-09-09T21:26:46.640Z,6.25
2022-09-09T21:29:14.550Z,5.10
2022-09-09T21:31:43.190Z,5.22
2022-09-09T21:34:13.490Z,5.03
2022-09-09T21:36:42.025Z,5.20
2022-09-09T21:39:10.193Z,4.88
2022-09-09T21:41:38.113Z,5.00
2022-09-09T21:44:06.047Z,4.97
2022-09-09T21:46:34.019Z,4.85
2022-09-09T21:49:03.525Z,4.93
2022-09-09T21:51:32.839Z,5.03
2022-09-09T21:54:00.990Z,4.70
2022-09-09T21:56:29.145Z,4.90
2022-09-09T21:58:57.842Z,5.43
2022-09-09T22:01:26.908Z,5.07
2022-09-09T22:03:54.929Z,5.63
2022-09-09T22:06:22.930Z,5.47
2022-09-09T22:08:52.284Z,4.78
2022-09-09T22:11:22.971Z,6.18
2022-09-09T22:13:53.224Z,5.47
2022-09-09T22:16:23.002Z,5.28
2022-09-09T22:18:56.757Z,5.93
2022-09-09T22:21:26.169Z,5.15
2022-09-09T22:23:58.111Z,5.30
2022-09-09T22:26:28.698Z,6.15
2022-09-09T22:28:57.399Z,6.10
2022-09-09T22:31:26.076Z,5.97
2022-09-09T22:33:54.772Z,5.78
2022-09-09T22:36:22.890Z,5.20
2022-09-09T22:38:51.811Z,4.65
2022-09-09T22:41:21.554Z,5.85
2022-09-09T22:43:50.808Z,7.05
2022-09-09T22:46:19.680Z,5.15
2022-09-09T22:48:48.175Z,5.22
2022-09-09T22:51:17.216Z,5.13
2022-09-09T22:53:46.520Z,5.35
2022-09-09T22:56:17.669Z,6.30
2022-09-09T22:58:48.156Z,5.80
2022-09-09T23:01:18.033Z,5.38
2022-09-09T23:03:47.133Z,5.38
2022-09-09T23:06:22.197Z,5.07
2022-09-09T23:08:52.005Z,6.68
2022-09-09T23:11:20.121Z,6.43
2022-09-09T23:13:52.617Z,5.50
2022-09-09T23:16:23.108Z,5.63
2022-09-09T23:18:52.223Z,5.93
2022-09-09T23:21:20.957Z,5.45
2022-09-09T23:23:49.152Z,4.90
2022-09-09T23:26:21.013Z,5.43
2022-09-09T23:28:51.853Z,5.60
2022-09-09T23:31:24.958Z,5.43
2022-09-09T23:33:54.376Z,5.47
2022-09-09T23:36:25.183Z,5.40
2022-09-09T23:38:54.511Z,5.93
2022-09-09T23:41:22.434Z,6.35
2022-09-09T23:43:53.827Z,5.38
2022-09-09T23:46:25.281Z,6.97
2022-09-09T23:48:53.195Z,4.85
2022-09-09T23:51:24.049Z,5.70
2022-09-09T23:53:56.916Z,5.18
2022-09-09T23:56:27.843Z,8.68
2022-09-09T23:58:57.157Z,6.07
